Time;durP1;ratioP1;P1;durP2;ratioP2;P2;SDS_P1;SDS_P2;PMS_P1;PMS_P2;Temp;Humidity;BMP_temperature;BMP_pressure;BME280_temperature;BME280_humidity;BME280_pressure;Samples;Min_cycle;Max_cycle;Signal;HPM_P1;HPM_P2
2022/09/27 00:01:35;;;;;;;6.65;1.38;;;11.70;99.90;;;;;;4992723;28;20228;-84
2022/09/27 00:04:01;;;;;;;1.95;1.15;;;11.90;99.90;;;;;;4992699;28;20271;-82
2022/09/27 00:06:29;;;;;;;3.47;1.52;;;11.80;99.90;;;;;;4993901;28;20636;-83
2022/09/27 00:08:56;;;;;;;6.63;1.75;;;11.70;99.90;;;;;;4992779;28;20231;-85
2022/09/27 00:11:31;;;;;;;4.68;1.45;;;11.60;99.90;;;;;;4993073;28;20181;-84
2022/09/27 00:13:58;;;;;;;4.57;1.23;;;11.60;99.90;;;;;;4992705;28;20608;-83
2022/09/27 00:16:27;;;;;;;6.35;2.22;;;11.70;99.90;;;;;;4994019;28;20659;-83
2022/09/27 00:18:56;;;;;;;4.65;1.52;;;11.50;99.90;;;;;;5009034;28;20214;-83
2022/09/27 00:21:22;;;;;;;5.25;1.92;;;11.40;99.90;;;;;;5009046;28;20173;-82
2022/09/27 00:23:48;;;;;;;9.80;1.13;;;11.50;99.90;;;;;;4992872;28;20256;-83
2022/09/27 00:26:13;;;;;;;3.70;0.77;;;11.40;99.90;;;;;;4995371;28;20248;-83
2022/09/27 00:28:40;;;;;;;2.67;0.65;;;11.30;99.90;;;;;;5024970;28;20182;-83
2022/09/27 00:31:19;;;;;;;1.10;0.80;;;11.20;99.90;;;;;;5017814;28;20173;-83
2022/09/27 00:33:49;;;;;;;4.40;0.90;;;11.20;99.90;;;;;;4994255;28;20615;-85
2022/09/27 00:36:15;;;;;;;5.30;0.88;;;11.10;99.90;;;;;;5009311;28;20614;-83
2022/09/27 00:38:41;;;;;;;4.70;0.82;;;11.10;99.90;;;;;;4993022;28;20232;-85
2022/09/27 00:41:15;;;;;;;2.72;0.77;;;11.10;99.90;;;;;;4992302;28;20200;-81
2022/09/27 00:43:49;;;;;;;5.25;0.70;;;11.00;99.90;;;;;;4992335;28;20622;-82
2022/09/27 00:46:22;;;;;;;4.15;0.80;;;11.00;99.90;;;;;;4993282;28;20196;-84
2022/09/27 00:48:56;;;;;;;1.75;0.80;;;11.00;99.90;;;;;;5008806;28;20234;-85
2022/09/27 00:51:22;;;;;;;5.38;0.80;;;11.00;99.90;;;;;;4992091;28;20670;-83
2022/09/27 00:53:51;;;;;;;4.35;0.63;;;10.90;99.90;;;;;;4991680;28;20200;-84
2022/09/27 00:56:21;;;;;;;2.35;0.65;;;11.00;99.90;;;;;;4992045;28;20268;-83
2022/09/27 00:58:53;;;;;;;3.13;0.65;;;11.00;99.90;;;;;;4992113;28;20220;-84
2022/09/27 01:01:18;;;;;;;2.13;0.60;;;11.10;99.90;;;;;;5008669;28;20169;-84
2022/09/27 01:03:53;;;;;;;1.58;0.65;;;11.20;99.90;;;;;;4992251;28;20540;-83
2022/09/27 01:06:20;;;;;;;7.38;0.82;;;11.20;99.90;;;;;;4992017;28;20168;-83
2022/09/27 01:08:46;;;;;;;0.57;0.43;;;11.20;99.90;;;;;;4992459;28;20247;-85
2022/09/27 01:11:25;;;;;;;6.40;0.85;;;11.20;99.90;;;;;;4992005;28;20632;-82
2022/09/27 01:14:15;;;;;;;2.17;0.65;;;11.20;99.90;;;;;;4991877;28;20188;-83
2022/09/27 01:17:08;;;;;;;2.50;0.90;;;11.30;99.90;;;;;;4991823;28;20169;-84
2022/09/27 01:19:50;;;;;;;2.88;0.65;;;11.30;99.90;;;;;;4992910;28;20237;-82
2022/09/27 01:22:29;;;;;;;1.33;0.68;;;11.40;99.90;;;;;;4992127;28;20180;-84
2022/09/27 01:25:10;;;;;;;1.27;0.70;;;11.40;99.90;;;;;;4991904;28;20195;-83
2022/09/27 01:27:58;;;;;;;3.47;0.98;;;11.40;99.90;;;;;;4991921;28;20177;-84
2022/09/27 01:30:42;;;;;;;3.00;1.10;;;11.40;99.90;;;;;;4991862;28;20173;-84
2022/09/27 01:33:20;;;;;;;8.65;1.52;;;11.50;99.90;;;;;;4991691;28;20263;-82
2022/09/27 01:36:06;;;;;;;2.80;1.27;;;11.70;99.90;;;;;;5007913;28;20719;-83
2022/09/27 01:38:44;;;;;;;2.20;1.15;;;11.70;99.90;;;;;;4992815;28;20719;-84
2022/09/27 01:41:18;;;;;;;4.80;1.33;;;11.60;99.90;;;;;;4992521;28;20248;-83
2022/09/27 01:43:52;;;;;;;7.63;1.00;;;11.50;99.90;;;;;;4992697;28;20172;-83
2022/09/27 01:46:25;;;;;;;5.22;1.05;;;11.40;99.90;;;;;;4992756;28;20170;-83
2022/09/27 01:48:52;;;;;;;10.55;1.23;;;11.40;99.90;;;;;;4992908;28;20176;-84
2022/09/27 01:51:29;;;;;;;2.63;0.70;;;11.50;99.90;;;;;;4995268;28;20532;-83
2022/09/27 01:54:01;;;;;;;7.47;1.10;;;11.50;99.90;;;;;;4996402;28;20193;-84
2022/09/27 01:56:37;;;;;;;12.50;1.02;;;11.60;99.90;;;;;;4995187;28;20312;-83
2022/09/27 01:59:02;;;;;;;2.22;1.02;;;11.60;99.90;;;;;;4995120;28;20212;-82
2022/09/27 02:01:31;;;;;;;1.33;0.90;;;11.50;99.90;;;;;;4995369;28;20182;-82
2022/09/27 02:04:00;;;;;;;3.40;1.30;;;11.40;99.90;;;;;;4996015;28;20671;-83
2022/09/27 02:06:36;;;;;;;4.45;1.20;;;11.40;99.90;;;;;;4994994;28;20173;-81
2022/09/27 02:09:08;;;;;;;4.78;1.33;;;11.40;99.90;;;;;;4995552;28;20196;-84
2022/09/27 02:11:35;;;;;;;2.28;1.40;;;11.40;99.90;;;;;;5012149;28;20173;-83
2022/09/27 02:14:22;;;;;;;2.88;1.08;;;11.30;99.90;;;;;;4996984;28;20189;-83
2022/09/27 02:16:51;;;;;;;1.92;1.10;;;11.20;99.90;;;;;;4996977;28;20173;-84
2022/09/27 02:19:32;;;;;;;3.13;1.10;;;11.20;99.90;;;;;;4995652;28;20215;-83
2022/09/27 02:22:04;;;;;;;2.45;0.70;;;11.30;99.90;;;;;;5010221;28;20596;-83
2022/09/27 02:24:41;;;;;;;8.85;1.17;;;11.30;99.90;;;;;;5015241;28;20260;-84
2022/09/27 02:27:14;;;;;;;1.63;0.50;;;11.30;99.90;;;;;;5015168;28;20165;-83
2022/09/27 02:29:50;;;;;;;7.70;1.00;;;11.30;99.90;;;;;;5017996;28;20149;-83
2022/09/27 02:32:16;;;;;;;3.15;0.90;;;11.30;99.90;;;;;;5036001;28;20233;-83
2022/09/27 02:34:43;;;;;;;2.17;0.75;;;11.30;99.90;;;;;;5014991;28;20208;-83
2022/09/27 02:37:09;;;;;;;2.55;0.80;;;11.40;99.90;;;;;;5017161;28;20173;-85
2022/09/27 02:39:35;;;;;;;1.00;0.77;;;11.50;99.90;;;;;;5013207;28;20213;-82
2022/09/27 02:42:02;;;;;;;1.85;0.82;;;11.60;99.90;;;;;;5006527;28;20169;-83
2022/09/27 02:44:29;;;;;;;3.33;0.70;;;11.50;99.90;;;;;;5010582;28;20244;-84
2022/09/27 02:47:01;;;;;;;2.55;0.73;;;11.50;99.90;;;;;;5017486;28;20240;-82
2022/09/27 02:49:45;;;;;;;2.35;1.00;;;11.20;99.90;;;;;;5019234;28;20181;-82
2022/09/27 02:52:40;;;;;;;4.03;0.73;;;11.20;99.90;;;;;;5036008;28;20189;-83
2022/09/27 02:55:27;;;;;;;1.95;0.85;;;11.20;99.90;;;;;;5023873;28;20185;-82
2022/09/27 02:58:04;;;;;;;1.58;0.73;;;11.40;99.90;;;;;;5004068;28;20256;-82
2022/09/27 03:00:54;;;;;;;9.00;1.40;;;11.40;99.90;;;;;;4995720;28;20204;-83
2022/09/27 03:03:27;;;;;;;5.47;1.25;;;11.40;99.90;;;;;;5003564;28;20271;-83
2022/09/27 03:06:03;;;;;;;3.13;1.20;;;11.40;99.90;;;;;;4994034;28;20243;-83
2022/09/27 03:08:29;;;;;;;3.45;1.38;;;11.40;99.90;;;;;;4994988;28;20272;-82
2022/09/27 03:10:55;;;;;;;6.90;1.45;;;11.30;99.90;;;;;;5011503;28;20180;-82
2022/09/27 03:13:20;;;;;;;1.67;1.10;;;11.40;99.90;;;;;;4994106;28;20173;-83
2022/09/27 03:15:46;;;;;;;1.83;1.08;;;11.40;99.90;;;;;;4993900;28;20200;-83
2022/09/27 03:18:12;;;;;;;1.77;0.90;;;11.40;99.90;;;;;;5010053;28;20281;-83
2022/09/27 03:20:40;;;;;;;10.32;1.10;;;11.60;99.90;;;;;;4995026;28;20205;-83
2022/09/27 03:23:06;;;;;;;3.85;0.98;;;11.70;99.90;;;;;;4993265;28;20316;-83
2022/09/27 03:25:31;;;;;;;4.72;1.00;;;11.50;99.90;;;;;;4993341;28;20189;-83
2022/09/27 03:27:57;;;;;;;1.15;1.00;;;11.50;99.90;;;;;;4994186;28;20628;-83
2022/09/27 03:30:23;;;;;;;1.35;0.93;;;11.50;99.90;;;;;;4993087;28;20169;-82
2022/09/27 03:32:48;;;;;;;2.03;1.20;;;11.50;99.90;;;;;;4994317;28;20637;-83
2022/09/27 03:35:14;;;;;;;2.70;1.20;;;11.70;99.90;;;;;;4994268;28;20589;-83
2022/09/27 03:37:40;;;;;;;1.10;0.88;;;11.70;99.90;;;;;;4992914;28;20180;-84
2022/09/27 03:40:06;;;;;;;5.18;1.33;;;11.60;99.90;;;;;;4994130;28;20571;-86
2022/09/27 03:42:32;;;;;;;2.03;1.10;;;11.50;99.90;;;;;;4994419;28;20174;-84
2022/09/27 03:44:57;;;;;;;7.80;1.55;;;11.60;99.90;;;;;;4993305;28;20192;-84
2022/09/27 03:47:23;;;;;;;1.55;0.90;;;11.80;99.90;;;;;;4993199;28;20675;-82
2022/09/27 03:49:49;;;;;;;3.58;1.00;;;11.70;99.90;;;;;;4994387;28;20177;-83
2022/09/27 03:52:17;;;;;;;2.65;1.45;;;11.70;99.90;;;;;;4992706;28;20176;-82
2022/09/27 03:54:43;;;;;;;2.53;0.85;;;11.70;99.90;;;;;;4994139;28;20600;-82
2022/09/27 03:57:09;;;;;;;3.35;0.98;;;11.70;99.90;;;;;;4993969;28;20255;-83
2022/09/27 03:59:34;;;;;;;5.90;0.90;;;11.70;99.90;;;;;;4992719;28;20252;-83
2022/09/27 04:02:00;;;;;;;5.18;1.20;;;11.60;99.90;;;;;;4993018;28;20165;-81
2022/09/27 04:04:25;;;;;;;3.55;1.00;;;11.70;99.90;;;;;;5008718;28;20200;-84
2022/09/27 04:06:51;;;;;;;1.10;0.80;;;11.70;99.90;;;;;;4992123;28;20170;-82
2022/09/27 04:09:16;;;;;;;3.28;0.93;;;11.70;99.90;;;;;;4993935;28;20177;-82
2022/09/27 04:11:42;;;;;;;2.10;0.60;;;11.60;99.90;;;;;;4991871;28;20256;-82
2022/09/27 04:14:08;;;;;;;3.55;1.00;;;11.40;99.90;;;;;;4992215;28;20205;-81
2022/09/27 04:16:34;;;;;;;5.07;1.10;;;11.40;99.90;;;;;;4992584;28;20647;-82
2022/09/27 04:19:03;;;;;;;7.60;1.15;;;11.50;99.90;;;;;;4992557;28;20212;-82
2022/09/27 04:21:29;;;;;;;4.07;1.58;;;11.50;99.90;;;;;;4994011;28;20189;-82
2022/09/27 04:23:54;;;;;;;6.65;1.27;;;11.50;99.90;;;;;;4993808;28;20697;-82
2022/09/27 04:26:20;;;;;;;3.80;1.20;;;11.60;99.90;;;;;;4992559;28;20265;-81
2022/09/27 04:28:45;;;;;;;2.13;1.25;;;11.70;99.90;;;;;;5008723;28;20197;-80
2022/09/27 04:31:11;;;;;;;4.28;1.50;;;11.70;99.90;;;;;;4992238;28;20575;-82
2022/09/27 04:33:37;;;;;;;3.97;1.30;;;11.70;99.90;;;;;;4992787;28;20559;-82
2022/09/27 04:38:54;;;;;;;3.70;1.95;;;11.60;99.90;;;;;;4994094;28;20244;-82
2022/09/27 04:41:22;;;;;;;2.03;1.60;;;11.60;99.90;;;;;;4993801;28;20181;-83
2022/09/27 04:43:48;;;;;;;5.63;2.53;;;11.70;99.90;;;;;;4993513;28;20165;-84
2022/09/27 04:46:14;;;;;;;3.35;1.63;;;11.60;99.90;;;;;;4992343;28;20224;-81
2022/09/27 04:48:40;;;;;;;2.10;1.90;;;11.50;99.90;;;;;;4992384;28;20169;-83
2022/09/27 04:51:05;;;;;;;7.63;1.80;;;11.40;99.90;;;;;;5008219;28;20203;-83
2022/09/27 04:53:31;;;;;;;1.98;1.85;;;11.30;99.90;;;;;;4991879;28;20273;-82
2022/09/27 04:56:01;;;;;;;3.03;1.60;;;11.30;99.90;;;;;;4993479;28;20620;-83
2022/09/27 04:58:28;;;;;;;11.27;2.20;;;11.30;99.90;;;;;;4991879;28;20169;-82
2022/09/27 05:00:54;;;;;;;9.07;2.42;;;11.60;99.90;;;;;;4991696;28;20219;-82
2022/09/27 05:03:21;;;;;;;2.80;2.30;;;11.70;99.90;;;;;;4991848;28;20718;-83
2022/09/27 05:05:47;;;;;;;3.92;1.90;;;11.80;99.90;;;;;;5008428;28;20204;-83
2022/09/27 05:08:13;;;;;;;2.20;2.00;;;11.50;99.90;;;;;;5000038;28;20178;-82
2022/09/27 05:10:39;;;;;;;3.80;1.95;;;11.40;99.90;;;;;;5013304;28;20183;-81
2022/09/27 05:13:05;;;;;;;4.65;2.08;;;11.60;99.90;;;;;;5016639;28;20169;-83
2022/09/27 05:15:31;;;;;;;6.30;2.15;;;11.50;99.90;;;;;;4998310;28;20197;-83
2022/09/27 05:17:57;;;;;;;2.65;1.90;;;11.40;99.90;;;;;;4992286;28;20179;-82
2022/09/27 05:20:24;;;;;;;6.18;3.08;;;11.40;99.90;;;;;;4993634;28;20204;-82
2022/09/27 05:22:50;;;;;;;2.63;1.88;;;11.40;99.90;;;;;;5008493;28;20173;-83
2022/09/27 05:25:17;;;;;;;5.90;2.10;;;11.30;99.90;;;;;;4995843;28;20189;-86
2022/09/27 05:27:42;;;;;;;9.55;2.13;;;11.40;99.90;;;;;;4997447;28;20173;-81
2022/09/27 05:30:09;;;;;;;5.65;1.70;;;11.50;99.90;;;;;;4995952;28;20534;-82
2022/09/27 05:32:40;;;;;;;6.03;2.08;;;11.40;99.90;;;;;;4995793;28;20173;-82
2022/09/27 05:35:06;;;;;;;3.42;1.98;;;11.40;99.90;;;;;;4995237;28;20255;-82
2022/09/27 05:37:33;;;;;;;5.25;2.25;;;11.40;99.90;;;;;;4996618;28;20184;-82
2022/09/27 05:39:58;;;;;;;2.38;2.10;;;11.40;99.90;;;;;;5011844;28;20322;-82
2022/09/27 05:42:24;;;;;;;2.17;1.95;;;11.30;99.90;;;;;;4995459;28;20176;-83
2022/09/27 05:44:49;;;;;;;5.88;1.98;;;11.20;99.90;;;;;;4995796;28;20189;-84
2022/09/27 05:47:15;;;;;;;2.65;1.70;;;11.40;99.90;;;;;;4997078;28;20162;-85
2022/09/27 05:49:40;;;;;;;3.63;2.03;;;11.40;99.90;;;;;;4996842;28;20620;-82
2022/09/27 05:52:06;;;;;;;2.90;2.10;;;11.50;99.90;;;;;;4997223;28;20213;-82
2022/09/27 05:54:32;;;;;;;2.38;2.05;;;11.40;99.90;;;;;;4997076;28;20189;-81
2022/09/27 05:56:59;;;;;;;2.00;1.77;;;11.30;99.90;;;;;;4994483;28;20170;-83
2022/09/27 05:59:25;;;;;;;4.00;2.08;;;11.30;99.90;;;;;;4995846;28;20584;-85
2022/09/27 06:01:51;;;;;;;7.32;2.25;;;11.30;99.90;;;;;;4997107;28;20525;-82
2022/09/27 06:04:17;;;;;;;9.88;2.25;;;11.30;99.90;;;;;;4995064;28;20196;-83
2022/09/27 06:06:44;;;;;;;1.60;1.38;;;11.50;99.90;;;;;;5012220;28;20196;-83
2022/09/27 06:09:11;;;;;;;1.70;1.60;;;11.60;99.90;;;;;;4995835;28;20184;-82
2022/09/27 06:11:36;;;;;;;6.25;1.85;;;11.90;99.90;;;;;;4996737;28;20249;-83
2022/09/27 06:14:02;;;;;;;4.78;2.05;;;11.80;99.90;;;;;;4996636;28;20659;-83
2022/09/27 06:16:27;;;;;;;3.85;1.63;;;11.70;99.90;;;;;;4995102;28;20623;-82
2022/09/27 06:18:54;;;;;;;5.40;2.00;;;11.70;99.90;;;;;;5011761;28;20233;-82
2022/09/27 06:21:21;;;;;;;5.93;2.00;;;11.50;99.90;;;;;;4996430;28;20541;-82
2022/09/27 06:23:47;;;;;;;2.58;1.80;;;11.60;99.90;;;;;;4994850;28;20170;-84
2022/09/27 06:26:13;;;;;;;6.13;1.75;;;11.60;99.90;;;;;;4995827;28;20587;-84
2022/09/27 06:28:38;;;;;;;5.95;1.67;;;11.60;99.90;;;;;;5002262;28;20176;-82
2022/09/27 06:31:07;;;;;;;4.45;1.50;;;11.30;99.90;;;;;;5001215;28;20645;-83
2022/09/27 06:33:34;;;;;;;3.30;1.50;;;11.40;99.90;;;;;;4995919;28;20173;-82
2022/09/27 06:36:06;;;;;;;3.70;1.73;;;11.20;99.90;;;;;;4993097;28;20259;-83
2022/09/27 06:38:32;;;;;;;2.47;1.33;;;11.40;99.90;;;;;;4997917;28;20635;-83
2022/09/27 06:41:02;;;;;;;1.98;1.77;;;11.50;99.90;;;;;;4996572;28;20515;-82
2022/09/27 06:43:28;;;;;;;3.28;1.95;;;11.70;99.90;;;;;;4993999;28;20172;-82
2022/09/27 06:45:54;;;;;;;4.43;1.70;;;11.60;99.90;;;;;;4997444;28;20264;-82
2022/09/27 06:48:19;;;;;;;1.50;1.40;;;11.50;99.90;;;;;;4997430;28;20573;-81
2022/09/27 06:50:47;;;;;;;2.63;1.70;;;11.40;99.90;;;;;;4994676;28;20535;-80
2022/09/27 06:53:15;;;;;;;3.45;1.98;;;11.60;99.90;;;;;;4993888;28;20274;-80
2022/09/27 06:55:41;;;;;;;3.22;1.80;;;11.70;99.90;;;;;;4993964;28;20247;-81
2022/09/27 07:00:54;;;;;;;1.85;1.73;;;11.70;99.90;;;;;;4995770;28;20270;-81
2022/09/27 07:03:22;;;;;;;5.32;2.40;;;11.70;99.90;;;;;;4993524;28;20631;-81
2022/09/27 07:06:01;;;;;;;5.22;1.60;;;11.70;99.90;;;;;;4993750;28;20197;-81
2022/09/27 07:08:28;;;;;;;5.30;1.83;;;11.70;99.90;;;;;;4993733;28;20173;-81
2022/09/27 07:10:55;;;;;;;5.00;2.13;;;11.60;99.90;;;;;;4993641;28;20706;-81
2022/09/27 07:13:22;;;;;;;1.80;1.70;;;11.50;99.90;;;;;;4993505;28;20165;-80
2022/09/27 07:15:47;;;;;;;8.75;2.00;;;11.60;99.90;;;;;;4994802;28;20221;-81
2022/09/27 07:18:13;;;;;;;2.47;2.05;;;11.80;99.90;;;;;;4995274;28;20178;-81
2022/09/27 07:20:39;;;;;;;1.77;1.67;;;11.80;99.90;;;;;;4994876;28;20209;-80
2022/09/27 07:23:06;;;;;;;2.38;1.80;;;11.70;99.90;;;;;;4995277;28;20496;-82
2022/09/27 07:25:32;;;;;;;19.05;2.63;;;11.70;99.90;;;;;;4993464;28;20197;-81
2022/09/27 07:28:03;;;;;;;2.20;1.90;;;11.80;99.90;;;;;;4994236;28;20172;-81
2022/09/27 07:30:29;;;;;;;5.57;2.22;;;11.90;99.90;;;;;;4995390;28;20173;-82
2022/09/27 07:32:58;;;;;;;5.55;1.90;;;11.90;99.90;;;;;;5028964;28;20149;-89
2022/09/27 07:35:25;;;;;;;6.07;2.00;;;11.90;99.90;;;;;;5014288;28;20213;-86
2022/09/27 07:37:51;;;;;;;1.95;1.77;;;12.00;99.90;;;;;;5013486;28;20185;-80
2022/09/27 07:40:17;;;;;;;4.20;1.67;;;11.90;99.90;;;;;;4996492;28;20237;-81
2022/09/27 07:42:43;;;;;;;6.68;2.30;;;11.90;99.90;;;;;;4994156;28;20173;-83
2022/09/27 07:45:10;;;;;;;3.58;2.10;;;11.80;99.90;;;;;;4995322;28;20200;-84
2022/09/27 07:47:37;;;;;;;3.28;1.70;;;11.70;99.90;;;;;;4993866;28;20248;-84
2022/09/27 07:50:09;;;;;;;1.98;1.77;;;11.80;99.90;;;;;;5010255;28;20642;-85
2022/09/27 07:52:43;;;;;;;8.93;2.17;;;11.70;99.90;;;;;;4993427;28;20533;-82
2022/09/27 07:55:09;;;;;;;2.63;1.90;;;11.70;99.90;;;;;;4993021;28;20208;-83
2022/09/27 07:57:36;;;;;;;3.85;2.20;;;11.70;99.90;;;;;;4994812;28;20250;-85
2022/09/27 08:00:05;;;;;;;1.83;1.65;;;11.70;99.90;;;;;;4994403;28;20291;-85
2022/09/27 08:02:32;;;;;;;7.57;1.77;;;11.90;99.90;;;;;;4993270;28;20288;-82
2022/09/27 08:05:01;;;;;;;5.30;2.17;;;12.10;99.90;;;;;;4992548;28;20220;-85
2022/09/27 08:07:28;;;;;;;1.65;1.52;;;12.10;99.90;;;;;;4993853;28;20173;-82
2022/09/27 08:09:59;;;;;;;1.70;1.60;;;11.90;99.90;;;;;;4992607;28;20682;-85
2022/09/27 08:12:30;;;;;;;3.28;1.45;;;11.60;99.90;;;;;;4992936;28;20640;-82
2022/09/27 08:15:00;;;;;;;2.50;1.40;;;11.60;99.90;;;;;;4995019;28;20276;-83
2022/09/27 08:17:26;;;;;;;8.43;2.05;;;11.70;99.90;;;;;;4995487;28;20203;-82
2022/09/27 08:19:52;;;;;;;1.70;1.45;;;11.80;99.90;;;;;;4995580;28;20205;-85
2022/09/27 08:22:20;;;;;;;2.00;1.73;;;11.80;99.90;;;;;;4997342;28;20462;-83
2022/09/27 08:24:46;;;;;;;2.95;1.60;;;11.90;99.90;;;;;;5010337;28;20591;-83
2022/09/27 08:27:12;;;;;;;3.78;1.73;;;12.00;99.90;;;;;;4994101;28;20173;-86
2022/09/27 08:29:40;;;;;;;3.38;1.60;;;12.00;99.90;;;;;;5002646;28;20188;-84
2022/09/27 08:32:07;;;;;;;4.43;1.50;;;12.00;99.90;;;;;;4999313;28;20641;-83
2022/09/27 08:34:32;;;;;;;2.42;1.45;;;11.80;99.90;;;;;;4995796;28;20659;-84
2022/09/27 08:36:58;;;;;;;10.75;1.70;;;11.80;99.90;;;;;;5002356;28;20189;-84
2022/09/27 08:39:24;;;;;;;5.55;1.33;;;11.90;99.90;;;;;;5009331;28;20205;-83
2022/09/27 08:42:03;;;;;;;1.42;1.13;;;12.10;99.90;;;;;;4994099;28;20235;-83
2022/09/27 08:45:07;;;;;;;4.38;1.52;;;12.10;99.90;;;;;;4992390;28;20196;-83
2022/09/27 08:48:02;;;;;;;6.40;1.70;;;11.90;99.90;;;;;;4992420;28;20172;-83
2022/09/27 08:50:28;;;;;;;4.30;1.52;;;11.90;99.90;;;;;;4992451;28;20161;-83
2022/09/27 08:53:31;;;;;;;2.10;1.33;;;11.70;99.90;;;;;;5009474;28;20184;-83
2022/09/27 08:55:59;;;;;;;3.45;1.65;;;11.80;99.90;;;;;;4992451;28;20564;-82
2022/09/27 08:58:56;;;;;;;3.00;1.30;;;11.80;99.90;;;;;;5007658;28;20259;-82
2022/09/27 09:01:22;;;;;;;1.30;1.20;;;11.80;99.90;;;;;;4994914;28;20201;-83
2022/09/27 09:03:57;;;;;;;7.63;1.23;;;11.80;99.90;;;;;;4995130;28;20526;-84
2022/09/27 09:06:27;;;;;;;1.20;1.10;;;11.80;99.90;;;;;;4992793;28;20205;-81
2022/09/27 09:09:10;;;;;;;1.17;1.08;;;11.80;99.90;;;;;;4993161;28;20172;-82
2022/09/27 09:14:42;;;;;;;3.38;1.40;;;11.70;99.90;;;;;;4993732;28;20288;-85
2022/09/27 09:17:26;;;;;;;6.22;1.48;;;11.60;99.90;;;;;;5007221;28;20259;-86
2022/09/27 09:20:20;;;;;;;3.65;1.33;;;11.70;99.90;;;;;;4992141;28;20205;-85
2022/09/27 09:23:19;;;;;;;9.35;1.20;;;11.70;99.90;;;;;;4993628;28;20189;-85
2022/09/27 09:26:00;;;;;;;2.47;1.33;;;11.70;99.90;;;;;;5005255;28;20208;-83
2022/09/27 09:28:38;;;;;;;1.40;1.00;;;12.10;99.90;;;;;;4997913;28;20268;-85
2022/09/27 09:31:36;;;;;;;2.28;1.20;;;12.30;99.90;;;;;;5013168;28;20176;-85
2022/09/27 09:34:33;;;;;;;4.70;1.08;;;12.50;99.90;;;;;;5011282;28;20188;-86
2022/09/27 09:37:23;;;;;;;3.30;1.25;;;12.60;99.90;;;;;;4993894;28;20204;-86
2022/09/27 09:40:00;;;;;;;3.30;1.35;;;13.00;99.90;;;;;;5010896;28;20201;-84
2022/09/27 09:42:37;;;;;;;3.25;1.20;;;13.10;99.90;;;;;;5011454;28;20634;-83
2022/09/27 09:45:18;;;;;;;2.80;1.23;;;13.20;99.90;;;;;;5011205;28;20445;-84
2022/09/27 09:47:51;;;;;;;1.85;1.00;;;13.60;99.90;;;;;;5012247;28;20267;-82
2022/09/27 09:50:34;;;;;;;3.05;1.15;;;13.80;99.90;;;;;;5010768;28;20164;-84
2022/09/27 09:53:16;;;;;;;2.03;1.20;;;13.80;99.90;;;;;;5011384;28;20165;-85
2022/09/27 09:55:54;;;;;;;4.85;1.42;;;14.20;99.90;;;;;;5011142;28;20265;-84
2022/09/27 09:58:27;;;;;;;3.17;1.67;;;14.30;99.90;;;;;;5010971;28;20173;-81
2022/09/27 10:00:59;;;;;;;3.92;2.50;;;14.10;99.90;;;;;;5010809;28;20235;-82
2022/09/27 10:03:34;;;;;;;3.05;1.70;;;14.20;99.90;;;;;;5011013;28;20267;-84
2022/09/27 10:06:00;;;;;;;5.75;2.13;;;14.30;99.90;;;;;;5010660;28;20618;-82
2022/09/27 10:08:25;;;;;;;6.03;1.73;;;14.50;99.90;;;;;;5010531;28;20260;-81
2022/09/27 10:10:51;;;;;;;8.18;1.52;;;14.80;99.90;;;;;;5013208;28;20179;-82
2022/09/27 10:13:21;;;;;;;2.92;1.48;;;15.00;99.90;;;;;;5015359;28;20200;-82
2022/09/27 10:15:55;;;;;;;6.40;1.60;;;14.90;99.90;;;;;;5017522;28;20192;-83
2022/09/27 10:18:22;;;;;;;4.55;1.60;;;14.80;99.90;;;;;;5015621;28;20211;-83
2022/09/27 10:20:58;;;;;;;13.35;8.40;;;14.50;99.90;;;;;;5014618;28;20200;-82
2022/09/27 10:23:25;;;;;;;5.95;3.45;;;14.60;99.90;;;;;;5015589;28;20183;-81
2022/09/27 10:25:59;;;;;;;6.63;1.30;;;14.80;99.90;;;;;;5014739;28;20539;-82
2022/09/27 10:28:36;;;;;;;13.55;2.13;;;14.50;99.90;;;;;;5015941;28;20175;-79
2022/09/27 10:31:16;;;;;;;4.55;1.75;;;14.60;99.90;;;;;;5015658;28;20259;-78
2022/09/27 10:34:04;;;;;;;12.95;2.63;;;14.50;99.90;;;;;;5015192;28;20164;-77
2022/09/27 10:36:34;;;;;;;5.95;2.17;;;14.70;99.90;;;;;;5015029;28;20176;-78
2022/09/27 10:39:03;;;;;;;14.73;6.43;;;14.90;99.90;;;;;;5015456;28;20196;-77
2022/09/27 10:41:35;;;;;;;6.95;2.30;;;15.00;99.90;;;;;;5015360;28;20175;-77
2022/09/27 10:44:19;;;;;;;5.32;1.95;;;14.90;99.90;;;;;;5015466;28;20188;-76
2022/09/27 10:46:48;;;;;;;3.65;1.85;;;14.80;99.90;;;;;;5015142;28;20164;-77
2022/09/27 10:49:28;;;;;;;5.80;1.55;;;14.80;99.90;;;;;;5015475;28;20172;-78
2022/09/27 10:51:56;;;;;;;9.05;2.70;;;14.60;99.90;;;;;;5015096;28;20173;-77
2022/09/27 10:54:35;;;;;;;3.45;1.80;;;14.50;99.90;;;;;;5015202;28;20753;-77
2022/09/27 10:57:04;;;;;;;7.00;1.73;;;14.40;99.90;;;;;;5015489;28;20199;-77
2022/09/27 10:59:33;;;;;;;2.67;1.60;;;14.40;99.90;;;;;;5015303;28;20205;-77
2022/09/27 11:01:59;;;;;;;5.82;1.92;;;14.60;99.90;;;;;;5015411;28;20161;-78
2022/09/27 11:04:30;;;;;;;8.32;3.00;;;14.90;99.90;;;;;;5014883;28;20192;-77
2022/09/27 11:07:10;;;;;;;7.50;2.17;;;14.90;99.90;;;;;;5014766;28;20647;-82
2022/09/27 11:10:01;;;;;;;5.43;1.73;;;14.60;99.90;;;;;;5014645;28;20168;-79
2022/09/27 11:12:29;;;;;;;4.20;1.20;;;14.30;99.90;;;;;;5014896;28;20168;-82
2022/09/27 11:15:01;;;;;;;10.27;1.25;;;13.80;99.90;;;;;;5014696;28;20609;-77
2022/09/27 11:17:37;;;;;;;14.63;3.28;;;13.60;99.90;;;;;;5013388;28;20259;-76
2022/09/27 11:20:15;;;;;;;2.20;0.82;;;13.20;99.90;;;;;;5014777;28;20200;-81
2022/09/27 11:22:54;;;;;;;6.38;1.42;;;13.20;99.90;;;;;;5014265;28;20182;-79
2022/09/27 11:25:44;;;;;;;1.23;0.70;;;13.30;99.90;;;;;;5014966;28;20188;-93
2022/09/27 11:28:34;;;;;;;2.65;0.82;;;13.30;99.90;;;;;;5014325;28;20531;-83
2022/09/27 11:31:19;;;;;;;2.00;0.57;;;13.40;99.90;;;;;;5014770;28;20175;-87
2022/09/27 11:33:44;;;;;;;2.08;0.80;;;13.40;99.90;;;;;;5014302;28;20214;-82
2022/09/27 11:36:32;;;;;;;2.40;1.08;;;13.50;99.90;;;;;;5015048;28;20271;-78
2022/09/27 11:39:36;;;;;;;1.20;0.73;;;13.50;99.90;;;;;;5014660;28;20196;-78
2022/09/27 11:42:22;;;;;;;4.55;0.88;;;13.50;99.90;;;;;;5014664;28;20168;-80
2022/09/27 11:44:50;;;;;;;2.50;1.08;;;13.70;99.90;;;;;;5014639;28;20223;-79
2022/09/27 11:47:47;;;;;;;4.70;1.10;;;14.00;99.90;;;;;;5014911;28;20516;-80
2022/09/27 11:50:46;;;;;;;1.30;0.75;;;14.00;99.90;;;;;;5015271;28;20235;-80
2022/09/27 11:53:44;;;;;;;1.40;0.98;;;13.80;99.90;;;;;;5014450;28;20173;-79
2022/09/27 11:56:54;;;;;;;1.10;0.70;;;13.70;99.90;;;;;;5014308;28;20167;-78
2022/09/27 11:59:44;;;;;;;4.00;0.80;;;13.80;99.90;;;;;;4994761;28;20220;-79
2022/09/27 12:02:43;;;;;;;1.55;1.20;;;13.90;99.90;;;;;;5013940;28;20165;-83
2022/09/27 12:05:22;;;;;;;3.13;0.77;;;14.00;99.90;;;;;;5013373;28;20543;-78
2022/09/27 12:08:21;;;;;;;1.60;0.80;;;14.30;99.90;;;;;;5013554;28;20214;-84
2022/09/27 12:10:52;;;;;;;3.35;0.63;;;14.50;99.90;;;;;;5013472;28;20211;-87
2022/09/27 12:13:40;;;;;;;6.63;0.88;;;14.60;99.90;;;;;;5013440;28;20299;-81
2022/09/27 12:16:06;;;;;;;2.97;0.70;;;14.90;99.90;;;;;;5013525;28;20769;-78
2022/09/27 12:18:37;;;;;;;5.05;1.20;;;14.90;99.90;;;;;;5012130;28;20188;-78
2022/09/27 12:21:05;;;;;;;4.05;2.85;;;14.80;99.90;;;;;;5013569;28;20205;-82
2022/09/27 12:23:39;;;;;;;5.25;0.80;;;14.70;99.90;;;;;;5013385;28;20196;-78
2022/09/27 12:26:23;;;;;;;2.95;0.82;;;14.60;99.90;;;;;;5013754;28;20290;-77
2022/09/27 12:29:17;;;;;;;4.40;1.10;;;14.60;99.90;;;;;;5013274;28;20164;-83
2022/09/27 12:32:01;;;;;;;2.30;0.70;;;14.60;99.90;;;;;;5013680;28;20210;-79
2022/09/27 12:34:38;;;;;;;3.22;1.13;;;14.60;99.90;;;;;;5012462;28;20278;-81
2022/09/27 12:37:24;;;;;;;2.42;1.02;;;14.80;99.90;;;;;;5013689;28;20203;-84
2022/09/27 12:40:05;;;;;;;4.20;1.40;;;14.70;99.90;;;;;;5014510;28;20290;-77
2022/09/27 12:42:33;;;;;;;5.90;0.98;;;14.60;99.90;;;;;;5015385;28;20223;-78
2022/09/27 12:44:59;;;;;;;13.45;4.55;;;14.70;99.90;;;;;;5018340;28;20196;-80
2022/09/27 12:47:50;;;;;;;9.60;3.97;;;14.80;99.90;;;;;;5015393;28;20160;-78
2022/09/27 12:50:54;;;;;;;2.42;0.98;;;14.90;99.90;;;;;;5019034;28;20223;-78
2022/09/27 12:53:25;;;;;;;4.45;1.40;;;14.70;99.90;;;;;;5014420;28;20164;-78
2022/09/27 12:56:12;;;;;;;3.83;1.00;;;14.40;99.90;;;;;;5013732;28;20188;-83
2022/09/27 12:59:19;;;;;;;2.95;0.70;;;14.10;99.90;;;;;;5015574;28;20251;-79
2022/09/27 13:02:11;;;;;;;2.00;0.80;;;13.80;99.90;;;;;;5015682;28;20199;-81
2022/09/27 13:04:47;;;;;;;2.95;0.77;;;13.70;99.90;;;;;;5013222;28;20441;-80
2022/09/27 13:07:22;;;;;;;1.38;0.75;;;13.70;99.90;;;;;;5013482;28;20168;-77
2022/09/27 13:10:25;;;;;;;11.10;0.90;;;13.70;99.90;;;;;;5012474;28;20310;-80
2022/09/27 13:12:53;;;;;;;4.15;0.88;;;14.00;99.90;;;;;;5012185;28;20176;-86
2022/09/27 13:15:32;;;;;;;4.50;1.98;;;14.10;99.90;;;;;;5013994;28;20212;-85
2022/09/27 13:18:00;;;;;;;5.63;1.55;;;14.10;99.90;;;;;;5012984;28;20578;-86
2022/09/27 13:20:39;;;;;;;1.70;0.82;;;14.40;99.90;;;;;;5011491;28;20570;-78
2022/09/27 13:23:17;;;;;;;3.63;0.55;;;14.70;99.90;;;;;;5012804;28;20164;-78